Time,TemperatureF,DewpointF,PressureIn,WindDirection,WindDirectionDegrees,WindSpeedMPH,WindSpeedGustMPH,Humidity,HourlyPrecipIn,Conditions,Clouds,dailyrainin,SoftwareType,DateUTC
2013-09-12 00:00:00,60.7,58.7,29.94,WNW,285,0.0,4.3,93,0.00,,---,0.00,VWS V12.07,2013-09-12 07:00:00,
2013-09-12 00:02:00,60.6,58.6,29.94,WNW,285,0.0,4.3,93,0.00,,---,0.00,VWS V12.07,2013-09-12 07:02:00,
2013-09-12 00:07:00,60.4,58.4,29.94,WNW,285,0.0,4.3,93,0.00,,---,0.00,VWS V12.07,2013-09-12 07:07:00,
2013-09-12 00:12:00,60.2,58.2,29.94,WNW,285,0.0,4.3,93,0.00,,---,0.00,VWS V12.07,2013-09-12 07:12:00,
2013-09-12 00:17:00,60.0,58.1,29.94,WNW,285,0.0,4.3,93,0.00,,---,0.00,VWS V12.07,2013-09-12 07:17:00,
2013-09-12 00:22:00,59.9,58.1,29.94,WNW,285,0.0,4.3,94,0.00,,---,0.00,VWS V12.07,2013-09-12 07:22:00,
2013-09-12 00:27:00,60.1,58.5,29.94,WNW,285,0.0,4.3,94,0.00,,---,0.00,VWS V12.07,2013-09-12 07:27:00,
2013-09-12 00:30:00,60.0,58.4,29.94,WNW,285,0.0,0.0,94,0.00,,---,0.00,VWS V12.07,2013-09-12 07:30:00,
2013-09-12 00:32:00,60.2,58.6,29.94,WNW,285,0.0,4.3,94,0.00,,---,0.00,VWS V12.07,2013-09-12 07:32:00,
2013-09-12 00:37:00,60.5,58.9,29.94,WNW,285,0.0,4.3,94,0.00,,---,0.00,VWS V12.07,2013-09-12 07:37:00,
2013-09-12 00:42:00,60.4,58.8,29.94,WNW,285,0.0,4.3,95,0.00,,---,0.00,VWS V12.07,2013-09-12 07:42:00,
2013-09-12 00:47:00,60.6,59.1,29.94,WNW,285,0.0,0.0,95,0.00,,---,0.00,VWS V12.07,2013-09-12 07:47:00,
2013-09-12 00:52:00,60.6,59.1,29.94,WNW,285,0.0,0.0,95,0.00,,---,0.00,VWS V12.07,2013-09-12 07:52:00,
2013-09-12 00:57:00,60.6,59.1,29.93,WNW,285,0.0,0.0,95,0.00,,---,0.00,VWS V12.07,2013-09-12 07:57:00,
2013-09-12 01:00:00,60.5,59.0,29.93,WNW,285,0.0,0.0,95,0.00,,---,0.00,VWS V12.07,2013-09-12 08:00:00,
2013-09-12 01:02:00,60.5,59.1,29.94,WNW,300,0.0,3.4,95,0.00,,---,0.00,VWS V12.07,2013-09-12 08:02:00,
2013-09-12 01:07:00,60.5,59.0,29.94,WNW,300,0.0,3.4,95,0.00,,---,0.00,VWS V12.07,2013-09-12 08:07:00,
2013-09-12 01:12:00,60.4,58.9,29.94,WNW,300,0.0,3.4,95,0.00,,---,0.00,VWS V12.07,2013-09-12 08:12:00,
2013-09-12 01:17:00,60.4,58.9,29.94,WNW,300,0.0,3.4,95,0.00,,---,0.00,VWS V12.07,2013-09-12 08:17:00,
2013-09-12 01:22:00,60.2,58.7,29.93,WNW,300,0.0,3.4,95,0.00,,---,0.00,VWS V12.07,2013-09-12 08:22:00,
2013-09-12 01:27:00,60.2,58.8,29.93,WNW,300,0.0,3.4,95,0.00,,---,0.00,VWS V12.07,2013-09-12 08:27:00,
2013-09-12 01:30:00,60.1,58.7,29.93,WNW,300,0.0,3.4,95,0.00,,---,0.00,VWS V12.07,2013-09-12 08:30:00,
2013-09-12 01:32:00,59.9,58.5,29.93,WNW,300,0.0,3.4,95,0.00,,---,0.00,VWS V12.07,2013-09-12 08:32:00,
2013-09-12 01:37:00,59.5,58.2,29.93,WNW,300,0.0,3.4,95,0.00,,---,0.00,VWS V12.07,2013-09-12 08:37:00,
2013-09-12 01:42:00,59.6,58.4,29.93,WNW,300,0.0,3.4,96,0.00,,---,0.00,VWS V12.07,2013-09-12 08:42:00,
2013-09-12 01:47:00,59.3,58.2,29.93,WNW,300,0.0,0.0,96,0.00,,---,0.00,VWS V12.07,2013-09-12 08:47:00,
2013-09-12 01:52:00,59.2,58.2,29.93,WNW,300,0.0,0.0,97,0.00,,---,0.00,VWS V12.07,2013-09-12 08:52:00,
2013-09-12 01:58:00,59.1,58.2,29.92,WNW,300,0.0,0.0,97,0.00,,---,0.00,VWS V12.07,2013-09-12 08:58:00,
2013-09-12 02:00:00,59.0,58.1,29.92,WNW,300,0.0,0.0,97,0.00,,---,0.00,VWS V12.07,2013-09-12 09:00:00,
2013-09-12 02:03:00,58.9,58.1,29.92,WNW,300,0.0,0.0,97,0.00,,---,0.00,VWS V12.07,2013-09-12 09:03:00,
2013-09-12 02:08:00,58.9,58.1,29.92,WNW,300,0.0,0.0,97,0.00,,---,0.00,VWS V12.07,2013-09-12 09:08:00,
2013-09-12 02:13:00,58.8,58.0,29.92,WNW,300,0.0,0.0,97,0.00,,---,0.00,VWS V12.07,2013-09-12 09:13:00,
2013-09-12 02:18:00,58.6,57.8,29.92,WNW,300,0.0,0.0,97,0.00,,---,0.00,VWS V12.07,2013-09-12 09:18:00,
2013-09-12 02:23:00,58.6,57.8,29.92,WNW,300,0.0,0.0,97,0.00,,---,0.00,VWS V12.07,2013-09-12 09:23:00,
2013-09-12 02:28:00,58.6,57.8,29.92,WNW,300,0.0,0.0,97,0.00,,---,0.00,VWS V12.07,2013-09-12 09:28:00,
2013-09-12 02:30:00,58.7,57.9,29.92,WNW,300,0.0,0.0,97,0.00,,---,0.00,VWS V12.07,2013-09-12 09:30:00,
2013-09-12 02:33:00,58.5,57.6,29.92,WNW,300,0.0,0.0,97,0.00,,---,0.00,VWS V12.07,2013-09-12 09:33:00,
2013-09-12 02:38:00,58.4,57.4,29.92,WNW,300,0.0,0.0,97,0.00,,---,0.00,VWS V12.07,2013-09-12 09:38:00,
2013-09-12 02:43:00,58.3,57.3,29.92,WNW,300,0.0,0.0,96,0.00,,---,0.00,VWS V12.07,2013-09-12 09:43:00,
2013-09-12 02:48:00,58.2,57.2,29.92,WNW,300,0.0,0.0,96,0.00,,---,0.00,VWS V12.07,2013-09-12 09:48:00,
2013-09-12 02:53:00,58.3,57.3,29.92,WNW,300,0.0,0.0,96,0.00,,---,0.00,VWS V12.07,2013-09-12 09:53:00,
2013-09-12 02:58:00,58.1,57.1,29.92,WSW,246,0.0,4.2,96,0.00,,---,0.00,VWS V12.07,2013-09-12 09:58:00,
2013-09-12 03:00:00,58.2,57.1,29.92,WSW,246,0.0,4.2,96,0.00,,---,0.00,VWS V12.07,2013-09-12 10:00:00,
2013-09-12 03:03:00,58.2,57.1,29.92,WSW,246,0.0,4.2,96,0.00,,---,0.00,VWS V12.07,2013-09-12 10:03:00,
2013-09-12 03:08:00,58.2,57.1,29.91,WSW,246,0.0,4.2,96,0.00,,---,0.00,VWS V12.07,2013-09-12 10:08:00,
2013-09-12 03:13:00,58.2,57.1,29.91,WSW,246,0.0,4.2,96,0.00,,---,0.00,VWS V12.07,2013-09-12 10:13:00,
2013-09-12 03:18:00,58.2,57.0,29.91,WSW,246,0.0,4.2,96,0.00,,---,0.00,VWS V12.07,2013-09-12 10:18:00,
2013-09-12 03:23:00,58.0,56.8,29.91,WSW,246,0.0,4.2,96,0.00,,---,0.00,VWS V12.07,2013-09-12 10:23:00,
2013-09-12 03:28:00,58.1,56.9,29.91,WSW,246,0.0,4.2,96,0.00,,---,0.00,VWS V12.07,2013-09-12 10:28:00,
2013-09-12 03:30:00,58.1,56.9,29.91,WSW,246,0.0,0.0,96,0.00,,---,0.00,VWS V12.07,2013-09-12 10:30:00,
2013-09-12 03:33:00,58.0,56.8,29.91,WSW,246,0.0,4.2,96,0.00,,---,0.00,VWS V12.07,2013-09-12 10:33:00,
2013-09-12 03:38:00,57.9,56.7,29.90,WSW,246,0.0,4.2,96,0.00,,---,0.00,VWS V12.07,2013-09-12 10:38:00,
2013-09-12 03:43:00,57.9,56.7,29.91,WSW,246,0.0,4.2,96,0.00,,---,0.00,VWS V12.07,2013-09-12 10:43:00,
2013-09-12 03:48:00,57.9,56.7,29.90,WSW,246,0.0,0.0,96,0.00,,---,0.00,VWS V12.07,2013-09-12 10:48:00,
2013-09-12 03:53:00,57.9,56.5,29.90,WSW,246,0.0,0.0,95,0.00,,---,0.00,VWS V12.07,2013-09-12 10:53:00,
2013-09-12 03:58:00,57.8,56.4,29.90,WSW,246,0.0,0.0,95,0.00,,---,0.00,VWS V12.07,2013-09-12 10:58:00,
2013-09-12 04:00:00,57.8,56.4,29.90,WSW,246,0.0,0.0,95,0.00,,---,0.00,VWS V12.07,2013-09-12 11:00:00,
2013-09-12 04:03:00,57.8,56.4,29.90,WSW,246,0.0,0.0,95,0.00,,---,0.00,VWS V12.07,2013-09-12 11:03:00,
2013-09-12 04:08:00,57.8,56.5,29.90,WSW,246,0.0,0.0,95,0.00,,---,0.00,VWS V12.07,2013-09-12 11:08:00,
2013-09-12 04:13:00,57.6,56.4,29.91,WSW,246,0.0,0.0,96,0.00,,---,0.00,VWS V12.07,2013-09-12 11:13:00,
2013-09-12 04:18:00,57.6,56.4,29.90,WSW,246,0.0,0.0,96,0.00,,---,0.00,VWS V12.07,2013-09-12 11:18:00,
2013-09-12 04:23:00,57.6,56.4,29.90,WSW,246,0.0,0.0,96,0.00,,---,0.00,VWS V12.07,2013-09-12 11:23:00,
2013-09-12 04:28:00,57.3,56.2,29.90,WSW,246,0.0,0.0,96,0.00,,---,0.00,VWS V12.07,2013-09-12 11:28:00,
2013-09-12 04:30:00,57.3,56.2,29.90,WSW,246,0.0,0.0,96,0.00,,---,0.00,VWS V12.07,2013-09-12 11:30:00,
2013-09-12 04:33:00,57.3,56.3,29.92,WSW,246,0.0,0.0,96,0.00,,---,0.00,VWS V12.07,2013-09-12 11:33:00,
2013-09-12 04:38:00,57.4,56.5,29.92,WSW,246,0.0,0.0,97,0.00,,---,0.00,VWS V12.07,2013-09-12 11:38:00,
2013-09-12 04:43:00,57.4,56.5,29.91,WSW,246,0.0,0.0,97,0.00,,---,0.00,VWS V12.07,2013-09-12 11:43:00,
2013-09-12 04:48:00,57.4,56.4,29.91,WSW,246,0.0,0.0,97,0.00,,---,0.00,VWS V12.07,2013-09-12 11:48:00,
2013-09-12 04:53:00,57.5,56.5,29.91,WSW,246,0.0,0.0,96,0.00,,---,0.00,VWS V12.07,2013-09-12 11:53:00,
2013-09-12 04:58:00,57.4,56.4,29.91,WSW,246,0.0,0.0,96,0.00,,---,0.00,VWS V12.07,2013-09-12 11:58:00,
2013-09-12 05:00:00,57.3,56.3,29.91,WSW,246,0.0,0.0,96,0.00,,---,0.00,VWS V12.07,2013-09-12 12:00:00,
2013-09-12 05:03:00,57.4,56.3,29.91,WSW,246,0.0,0.0,96,0.00,,---,0.00,VWS V12.07,2013-09-12 12:03:00,
2013-09-12 05:08:00,57.3,56.1,29.91,WSW,246,0.0,0.0,96,0.00,,---,0.00,VWS V12.07,2013-09-12 12:08:00,
2013-09-12 05:13:00,57.3,56.1,29.91,WSW,246,0.0,0.0,96,0.00,,---,0.00,VWS V12.07,2013-09-12 12:13:00,
2013-09-12 05:18:00,57.4,56.2,29.91,WSW,246,0.0,0.0,96,0.00,,---,0.00,VWS V12.07,2013-09-12 12:18:00,
2013-09-12 05:23:00,57.3,56.1,29.91,WSW,246,0.0,0.0,96,0.00,,---,0.00,VWS V12.07,2013-09-12 12:23:00,
2013-09-12 05:28:00,57.4,56.2,29.91,WSW,246,0.0,0.0,96,0.00,,---,0.00,VWS V12.07,2013-09-12 12:28:00,
2013-09-12 05:30:00,57.4,56.2,29.91,WSW,246,0.0,0.0,96,0.00,,---,0.00,VWS V12.07,2013-09-12 12:30:00,
2013-09-12 05:33:00,57.4,56.2,29.92,WSW,246,0.0,0.0,96,0.00,,---,0.00,VWS V12.07,2013-09-12 12:33:00,
2013-09-12 05:38:00,57.3,56.1,29.91,WSW,246,0.0,0.0,96,0.00,,---,0.00,VWS V12.07,2013-09-12 12:38:00,
2013-09-12 05:43:00,57.1,56.0,29.92,WSW,246,0.0,0.0,96,0.00,,---,0.00,VWS V12.07,2013-09-12 12:43:00,
2013-09-12 05:48:00,57.1,56.0,29.92,WSW,246,0.0,0.0,96,0.00,,---,0.00,VWS V12.07,2013-09-12 12:48:00,
2013-09-12 05:53:00,57.1,56.2,29.92,WSW,246,0.0,0.0,97,0.01,,---,0.01,VWS V12.07,2013-09-12 12:53:00,
2013-09-12 05:58:00,57.2,56.3,29.92,WSW,246,0.0,0.0,97,0.01,,---,0.01,VWS V12.07,2013-09-12 12:58:00,
2013-09-12 06:00:00,57.2,56.3,29.92,WSW,246,0.0,0.0,97,0.01,,---,0.01,VWS V12.07,2013-09-12 13:00:00,
2013-09-12 06:03:00,57.3,56.5,29.92,WSW,246,0.0,0.0,97,0.01,,---,0.01,VWS V12.07,2013-09-12 13:03:00,
2013-09-12 06:08:00,57.1,56.3,29.92,WSW,246,0.0,0.0,97,0.01,,---,0.01,VWS V12.07,2013-09-12 13:08:00,
2013-09-12 06:13:00,57.1,56.4,29.92,WSW,246,0.0,0.0,97,0.01,,---,0.01,VWS V12.07,2013-09-12 13:13:00,
2013-09-12 06:18:00,57.0,56.3,29.92,WSW,246,0.0,0.0,98,0.01,,---,0.01,VWS V12.07,2013-09-12 13:18:00,
2013-09-12 06:23:00,57.0,56.3,29.92,WSW,246,0.0,0.0,98,0.01,,---,0.01,VWS V12.07,2013-09-12 13:23:00,
2013-09-12 06:28:00,56.9,56.3,29.92,WSW,246,0.0,0.0,98,0.01,,---,0.01,VWS V12.07,2013-09-12 13:28:00,
2013-09-12 06:30:00,56.9,56.3,29.92,WSW,246,0.0,0.0,98,0.01,,---,0.01,VWS V12.07,2013-09-12 13:30:00,
2013-09-12 06:33:00,56.9,56.3,29.92,WSW,246,0.0,0.0,98,0.01,,---,0.01,VWS V12.07,2013-09-12 13:33:00,
2013-09-12 06:38:00,57.0,56.5,29.92,WSW,246,0.0,0.0,98,0.01,,---,0.01,VWS V12.07,2013-09-12 13:38:00,
2013-09-12 06:43:00,57.2,56.8,29.92,WSW,246,0.0,0.0,98,0.01,,---,0.01,VWS V12.07,2013-09-12 13:43:00,
2013-09-12 06:48:00,57.5,57.1,29.92,WSW,246,0.0,0.0,99,0.01,,---,0.01,VWS V12.07,2013-09-12 13:48:00,
2013-09-12 06:53:00,57.8,57.4,29.92,WSW,246,0.0,0.0,99,0.01,,---,0.01,VWS V12.07,2013-09-12 13:53:00,
2013-09-12 06:58:00,58.1,57.6,29.92,WSW,246,0.0,0.0,98,0.01,,---,0.01,VWS V12.07,2013-09-12 13:58:00,
2013-09-12 07:00:00,58.1,57.6,29.92,WSW,246,0.0,0.0,98,0.01,,---,0.01,VWS V12.07,2013-09-12 14:00:00,
2013-09-12 07:03:00,58.4,57.8,29.92,WSW,246,0.0,2.3,98,0.00,,---,0.01,VWS V12.07,2013-09-12 14:03:00,
2013-09-12 07:08:00,58.9,58.1,29.92,WSW,246,0.0,2.3,97,0.00,,---,0.01,VWS V12.07,2013-09-12 14:08:00,
2013-09-12 07:13:00,59.2,58.3,29.93,North,1,0.0,5.0,97,0.00,,---,0.01,VWS V12.07,2013-09-12 14:13:00,
2013-09-12 07:18:00,59.6,58.5,29.93,NNW,336,0.0,5.0,96,0.00,,---,0.01,VWS V12.07,2013-09-12 14:18:00,
2013-09-12 07:23:00,60.0,58.7,29.93,North,356,2.7,5.0,96,0.00,,---,0.01,VWS V12.07,2013-09-12 14:23:00,
2013-09-12 07:28:00,60.6,59.2,29.93,NW,312,4.4,5.0,95,0.00,,---,0.01,VWS V12.07,2013-09-12 14:28:00,
2013-09-12 07:30:00,60.6,59.2,29.93,NW,312,3.3,5.0,95,0.00,,---,0.01,VWS V12.07,2013-09-12 14:30:00,
2013-09-12 07:33:00,61.1,59.4,29.94,NNW,333,0.0,5.2,94,0.00,,---,0.01,VWS V12.07,2013-09-12 14:33:00,
2013-09-12 07:38:00,61.4,59.3,29.94,WNW,291,0.0,5.2,93,0.00,,---,0.01,VWS V12.07,2013-09-12 14:38:00,
2013-09-12 07:43:00,61.8,59.5,29.94,WNW,291,0.0,5.2,92,0.00,,---,0.01,VWS V12.07,2013-09-12 14:43:00,
2013-09-12 07:48:00,62.2,59.5,29.94,WNW,291,0.0,5.2,91,0.00,,---,0.01,VWS V12.07,2013-09-12 14:48:00,
2013-09-12 07:53:00,62.5,59.6,29.94,WNW,291,0.0,5.2,90,0.00,,---,0.01,VWS V12.07,2013-09-12 14:53:00,
2013-09-12 07:58:00,62.6,59.2,29.94,WNW,291,0.0,5.2,89,0.00,,---,0.01,VWS V12.07,2013-09-12 14:58:00,
2013-09-12 08:00:00,62.6,59.2,29.94,WNW,291,0.0,5.2,89,0.00,,---,0.01,VWS V12.07,2013-09-12 15:00:00,
2013-09-12 08:03:00,62.9,59.0,29.94,WNW,291,0.0,5.2,87,0.00,,---,0.01,VWS V12.07,2013-09-12 15:03:00,
2013-09-12 08:08:00,63.0,58.8,29.94,WNW,291,0.0,5.2,86,0.00,,---,0.01,VWS V12.07,2013-09-12 15:08:00,
2013-09-12 08:13:00,63.4,58.8,29.94,NNE,15,0.0,5.2,85,0.00,,---,0.01,VWS V12.07,2013-09-12 15:13:00,
2013-09-12 08:18:00,63.8,58.3,29.94,West,276,3.0,6.9,82,0.00,,---,0.01,VWS V12.07,2013-09-12 15:18:00,
2013-09-12 08:23:00,64.5,58.5,29.94,NE,35,0.0,6.9,81,0.00,,---,0.01,VWS V12.07,2013-09-12 15:23:00,
2013-09-12 08:28:00,65.1,58.7,29.94,SW,217,2.6,6.9,80,0.00,,---,0.01,VWS V12.07,2013-09-12 15:28:00,
2013-09-12 08:30:00,65.1,58.7,29.94,SW,217,2.6,6.9,80,0.00,,---,0.01,VWS V12.07,2013-09-12 15:30:00,
2013-09-12 08:33:00,65.9,58.8,29.94,North,3,3.2,6.9,78,0.00,,---,0.01,VWS V12.07,2013-09-12 15:33:00,
2013-09-12 08:38:00,66.4,58.6,29.94,NNE,17,0.0,6.9,76,0.00,,---,0.01,VWS V12.07,2013-09-12 15:38:00,
2013-09-12 08:43:00,66.9,58.6,29.94,North,359,4.3,6.9,75,0.00,,---,0.01,VWS V12.07,2013-09-12 15:43:00,
2013-09-12 08:48:00,67.4,58.8,29.94,NNW,338,0.0,5.7,74,0.00,,---,0.01,VWS V12.07,2013-09-12 15:48:00,
2013-09-12 08:53:00,68.1,58.7,29.94,NNW,329,4.7,5.7,72,0.00,,---,0.01,VWS V12.07,2013-09-12 15:53:00,
2013-09-12 08:58:00,68.4,58.4,29.93,NNW,346,0.0,5.7,70,0.00,,---,0.01,VWS V12.07,2013-09-12 15:58:00,
2013-09-12 09:00:00,68.4,58.4,29.93,NNW,346,0.0,5.7,70,0.00,,---,0.01,VWS V12.07,2013-09-12 16:00:00,
2013-09-12 09:03:00,68.7,58.4,29.93,North,359,3.0,5.8,70,0.00,,---,0.01,VWS V12.07,2013-09-12 16:03:00,
2013-09-12 09:08:00,69.1,58.5,29.93,ENE,62,0.0,5.8,69,0.00,,---,0.01,VWS V12.07,2013-09-12 16:08:00,
2013-09-12 09:13:00,69.7,58.7,29.93,ENE,63,4.8,5.9,68,0.00,,---,0.01,VWS V12.07,2013-09-12 16:13:00,
2013-09-12 09:18:00,70.3,58.6,29.93,NW,311,2.3,5.9,66,0.00,,---,0.01,VWS V12.07,2013-09-12 16:18:00,
2013-09-12 09:23:00,70.7,58.6,29.94,North,6,3.5,5.9,66,0.00,,---,0.01,VWS V12.07,2013-09-12 16:23:00,
2013-09-12 09:28:00,71.1,58.7,29.94,North,8,0.0,5.9,65,0.00,,---,0.01,VWS V12.07,2013-09-12 16:28:00,
2013-09-12 09:30:00,71.1,58.7,29.94,North,8,0.0,5.9,65,0.00,,---,0.01,VWS V12.07,2013-09-12 16:30:00,
2013-09-12 09:33:00,71.5,58.9,29.94,North,8,0.0,5.9,64,0.00,,---,0.01,VWS V12.07,2013-09-12 16:33:00,
2013-09-12 09:38:00,71.8,58.8,29.93,North,8,0.0,5.9,64,0.00,,---,0.01,VWS V12.07,2013-09-12 16:38:00,
2013-09-12 09:43:00,72.5,59.1,29.93,North,8,0.0,5.9,63,0.00,,---,0.01,VWS V12.07,2013-09-12 16:43:00,
2013-09-12 09:48:00,73.0,58.9,29.93,NW,304,4.2,5.7,61,0.00,,---,0.01,VWS V12.07,2013-09-12 16:48:00,
2013-09-12 09:53:00,73.4,58.9,29.93,WNW,283,0.0,5.7,60,0.00,,---,0.01,VWS V12.07,2013-09-12 16:53:00,
2013-09-12 09:58:00,73.4,58.6,29.93,NE,46,0.0,5.7,60,0.00,,---,0.01,VWS V12.07,2013-09-12 16:58:00,
2013-09-12 10:00:00,73.4,58.6,29.93,NE,46,0.0,5.7,60,0.00,,---,0.01,VWS V12.07,2013-09-12 17:00:00,
2013-09-12 10:03:00,74.2,58.9,29.93,NNE,30,0.0,5.7,59,0.00,,---,0.01,VWS V12.07,2013-09-12 17:03:00,
2013-09-12 10:08:00,74.7,58.3,29.93,NE,39,0.0,6.2,57,0.00,,---,0.01,VWS V12.07,2013-09-12 17:08:00,
2013-09-12 10:13:00,75.4,57.8,29.93,NNE,13,0.0,6.2,54,0.00,,---,0.01,VWS V12.07,2013-09-12 17:13:00,
2013-09-12 10:18:00,75.3,58.2,29.92,West,276,0.0,6.2,55,0.00,,---,0.01,VWS V12.07,2013-09-12 17:18:00,
2013-09-12 10:23:00,75.7,57.2,29.92,West,276,0.0,6.2,53,0.00,,---,0.01,VWS V12.07,2013-09-12 17:23:00,
2013-09-12 10:28:00,76.3,57.5,29.92,WNW,290,0.0,6.2,52,0.00,,---,0.01,VWS V12.07,2013-09-12 17:28:00,
2013-09-12 10:30:00,76.3,57.5,29.92,WNW,290,0.0,6.2,52,0.00,,---,0.01,VWS V12.07,2013-09-12 17:30:00,
2013-09-12 10:33:00,77.1,58.1,29.92,NW,314,0.0,6.2,52,0.00,,---,0.01,VWS V12.07,2013-09-12 17:33:00,
2013-09-12 10:38:00,77.7,58.3,29.92,NW,314,0.0,6.2,51,0.00,,---,0.01,VWS V12.07,2013-09-12 17:38:00,
2013-09-12 10:43:00,78.0,57.9,29.92,NNE,22,0.0,6.8,50,0.00,,---,0.01,VWS V12.07,2013-09-12 17:43:00,
2013-09-12 10:48:00,78.4,58.0,29.92,WNW,300,4.5,6.8,50,0.00,,---,0.01,VWS V12.07,2013-09-12 17:48:00,
2013-09-12 10:53:00,78.4,58.5,29.92,NW,305,0.0,6.8,50,0.00,,---,0.01,VWS V12.07,2013-09-12 17:53:00,
2013-09-12 10:58:00,78.8,57.6,29.91,North,356,3.5,6.8,48,0.00,,---,0.01,VWS V12.07,2013-09-12 17:58:00,
2013-09-12 11:00:00,78.7,57.5,29.91,North,359,0.0,6.8,48,0.00,,---,0.01,VWS V12.07,2013-09-12 18:00:00,
2013-09-12 11:03:00,78.7,56.7,29.91,North,7,0.0,6.8,47,0.00,,---,0.01,VWS V12.07,2013-09-12 18:03:00,
2013-09-12 11:08:00,79.3,57.0,29.91,NNE,14,0.0,6.8,46,0.00,,---,0.01,VWS V12.07,2013-09-12 18:08:00,
2013-09-12 11:13:00,80.3,57.2,29.91,NNW,338,4.3,6.8,45,0.00,,---,0.01,VWS V12.07,2013-09-12 18:13:00,
2013-09-12 11:18:00,81.0,57.3,29.90,North,350,0.0,6.8,44,0.00,,---,0.01,VWS V12.07,2013-09-12 18:18:00,
2013-09-12 11:23:00,81.3,57.5,29.90,ENE,59,0.0,6.8,44,0.00,,---,0.01,VWS V12.07,2013-09-12 18:23:00,
2013-09-12 11:28:00,81.4,56.7,29.90,WNW,297,0.0,6.8,43,0.00,,---,0.01,VWS V12.07,2013-09-12 18:28:00,
2013-09-12 11:30:00,81.4,56.7,29.90,WNW,297,0.0,5.7,43,0.00,,---,0.01,VWS V12.07,2013-09-12 18:30:00,
2013-09-12 11:33:00,81.4,56.2,29.90,NNW,340,0.0,6.8,42,0.00,,---,0.01,VWS V12.07,2013-09-12 18:33:00,
2013-09-12 11:38:00,81.5,56.6,29.90,NNW,340,0.0,6.8,43,0.00,,---,0.01,VWS V12.07,2013-09-12 18:38:00,
2013-09-12 11:43:00,81.9,56.8,29.89,NE,55,0.0,6.8,42,0.00,,---,0.01,VWS V12.07,2013-09-12 18:43:00,
2013-09-12 11:48:00,82.2,55.4,29.89,NW,311,0.0,6.8,40,0.00,,---,0.01,VWS V12.07,2013-09-12 18:48:00,
2013-09-12 11:53:00,82.4,55.2,29.89,North,0,0.0,6.8,39,0.01,,---,0.02,VWS V12.07,2013-09-12 18:53:00,
2013-09-12 11:58:00,82.5,56.6,29.89,North,8,2.5,6.8,41,0.01,,---,0.02,VWS V12.07,2013-09-12 18:58:00,
2013-09-12 12:00:00,82.6,56.8,29.89,North,0,0.0,6.8,41,0.01,,---,0.02,VWS V12.07,2013-09-12 19:00:00,
2013-09-12 12:03:00,83.4,56.2,29.89,West,259,0.0,6.8,39,0.01,,---,0.02,VWS V12.07,2013-09-12 19:03:00,
2013-09-12 12:08:00,83.6,55.5,29.89,West,259,0.0,6.8,38,0.01,,---,0.02,VWS V12.07,2013-09-12 19:08:00,
2013-09-12 12:13:00,83.5,55.2,29.89,NE,35,2.9,6.8,38,0.01,,---,0.02,VWS V12.07,2013-09-12 19:13:00,
2013-09-12 12:18:00,83.5,56.5,29.88,WNW,290,0.0,6.8,40,0.01,,---,0.02,VWS V12.07,2013-09-12 19:18:00,
2013-09-12 12:23:00,84.0,56.5,29.88,ENE,70,0.0,6.8,39,0.01,,---,0.02,VWS V12.07,2013-09-12 19:23:00,
2013-09-12 12:28:00,84.7,55.5,29.88,ENE,70,0.0,6.8,37,0.01,,---,0.02,VWS V12.07,2013-09-12 19:28:00,
2013-09-12 12:30:00,84.7,55.6,29.88,ENE,70,0.0,5.6,37,0.01,,---,0.02,VWS V12.07,2013-09-12 19:30:00,
2013-09-12 12:33:00,85.5,55.1,29.88,SSW,207,3.4,6.8,36,0.01,,---,0.02,VWS V12.07,2013-09-12 19:33:00,
2013-09-12 12:38:00,85.3,53.9,29.87,South,191,0.0,6.8,34,0.01,,---,0.02,VWS V12.07,2013-09-12 19:38:00,
2013-09-12 12:43:00,85.6,54.6,29.87,South,191,0.0,6.8,35,0.01,,---,0.02,VWS V12.07,2013-09-12 19:43:00,
2013-09-12 12:48:00,85.8,54.5,29.87,WSW,249,0.0,6.5,34,0.01,,---,0.02,VWS V12.07,2013-09-12 19:48:00,
2013-09-12 12:53:00,85.8,52.8,29.87,South,174,0.0,6.5,32,0.01,,---,0.02,VWS V12.07,2013-09-12 19:53:00,
2013-09-12 12:58:00,85.6,51.3,29.87,WNW,284,0.0,6.5,31,0.01,,---,0.02,VWS V12.07,2013-09-12 19:58:00,
2013-09-12 13:00:00,85.7,51.3,29.87,WNW,284,0.0,6.5,31,0.01,,---,0.02,VWS V12.07,2013-09-12 20:00:00,
2013-09-12 13:03:00,85.5,52.4,29.87,SW,232,0.0,6.5,32,0.00,,---,0.02,VWS V12.07,2013-09-12 20:03:00,
2013-09-12 13:08:00,86.4,52.5,29.87,SW,232,0.0,6.5,31,0.00,,---,0.02,VWS V12.07,2013-09-12 20:08:00,
2013-09-12 13:13:00,86.5,50.7,29.86,SW,232,0.0,6.5,29,0.00,,---,0.02,VWS V12.07,2013-09-12 20:13:00,
2013-09-12 13:18:00,86.3,52.5,29.86,SW,232,0.0,6.5,31,0.00,,---,0.02,VWS V12.07,2013-09-12 20:18:00,
2013-09-12 13:23:00,86.8,51.0,29.86,SW,232,0.0,6.5,29,0.00,,---,0.02,VWS V12.07,2013-09-12 20:23:00,
2013-09-12 13:28:00,87.5,51.5,29.86,SW,232,0.0,6.5,29,0.00,,---,0.02,VWS V12.07,2013-09-12 20:28:00,
2013-09-12 13:30:00,87.4,51.5,29.86,SW,232,0.0,4.4,29,0.00,,---,0.02,VWS V12.07,2013-09-12 20:30:00,
2013-09-12 13:33:00,87.7,50.3,29.86,SW,228,0.0,7.6,28,0.00,,---,0.02,VWS V12.07,2013-09-12 20:33:00,
2013-09-12 13:38:00,87.5,50.5,29.85,SW,236,0.0,7.6,28,0.00,,---,0.02,VWS V12.07,2013-09-12 20:38:00,
2013-09-12 13:43:00,86.9,50.8,29.85,SSW,204,0.0,7.6,29,0.00,,---,0.02,VWS V12.07,2013-09-12 20:43:00,
2013-09-12 13:48:00,87.2,50.3,29.85,WSW,256,3.5,7.6,28,0.00,,---,0.02,VWS V12.07,2013-09-12 20:48:00,
2013-09-12 13:53:00,87.0,50.3,29.85,South,173,0.0,7.6,28,0.00,,---,0.02,VWS V12.07,2013-09-12 20:53:00,
2013-09-12 13:58:00,86.8,50.2,29.84,West,271,4.5,7.8,28,0.00,,---,0.02,VWS V12.07,2013-09-12 20:58:00,
2013-09-12 14:00:00,86.8,50.3,29.84,West,267,0.0,7.8,28,0.00,,---,0.02,VWS V12.07,2013-09-12 21:00:00,
2013-09-12 14:03:00,86.5,49.8,29.84,SW,218,0.0,7.8,28,0.00,,---,0.02,VWS V12.07,2013-09-12 21:03:00,
2013-09-12 14:08:00,86.6,49.7,29.84,SSW,197,5.7,7.8,28,0.00,,---,0.02,VWS V12.07,2013-09-12 21:08:00,
2013-09-12 14:13:00,86.9,50.1,29.84,South,177,0.0,7.8,28,0.00,,---,0.02,VWS V12.07,2013-09-12 21:13:00,
2013-09-12 14:18:00,87.0,49.2,29.84,South,177,0.0,7.8,27,0.00,,---,0.02,VWS V12.07,2013-09-12 21:18:00,
2013-09-12 14:23:00,86.6,47.7,29.84,South,177,0.0,7.8,26,0.00,,---,0.02,VWS V12.07,2013-09-12 21:23:00,
2013-09-12 14:28:00,87.0,48.7,29.83,South,177,0.0,7.8,27,0.00,,---,0.02,VWS V12.07,2013-09-12 21:28:00,
2013-09-12 14:30:00,86.6,48.6,29.83,South,177,0.0,6.3,27,0.00,,---,0.02,VWS V12.07,2013-09-12 21:30:00,
2013-09-12 14:33:00,87.5,48.7,29.83,South,177,0.0,7.8,26,0.00,,---,0.02,VWS V12.07,2013-09-12 21:33:00,
2013-09-12 14:38:00,88.1,46.8,29.83,SW,228,0.0,7.8,24,0.00,,---,0.02,VWS V12.07,2013-09-12 21:38:00,
2013-09-12 14:43:00,88.1,47.6,29.82,SW,228,0.0,7.8,25,0.00,,---,0.02,VWS V12.07,2013-09-12 21:43:00,
2013-09-12 14:48:00,88.7,47.1,29.82,SW,228,0.0,6.8,24,0.00,,---,0.02,VWS V12.07,2013-09-12 21:48:00,
2013-09-12 14:53:00,89.3,47.8,29.82,SW,228,0.0,6.8,24,0.00,,---,0.02,VWS V12.07,2013-09-12 21:53:00,
2013-09-12 14:58:00,89.6,45.9,29.82,SW,228,0.0,6.8,22,0.00,,---,0.02,VWS V12.07,2013-09-12 21:58:00,
2013-09-12 15:00:00,89.9,46.5,29.82,SW,228,0.0,6.8,22,0.00,,---,0.02,VWS V12.07,2013-09-12 22:00:00,
2013-09-12 15:03:00,90.0,43.8,29.82,WSW,248,2.2,6.8,20,0.00,,---,0.02,VWS V12.07,2013-09-12 22:03:00,
2013-09-12 15:08:00,89.9,43.2,29.82,NW,326,4.2,6.8,20,0.00,,---,0.02,VWS V12.07,2013-09-12 22:08:00,
2013-09-12 15:13:00,89.8,43.5,29.82,West,269,0.0,6.8,20,0.00,,---,0.02,VWS V12.07,2013-09-12 22:13:00,
2013-09-12 15:18:00,90.0,42.0,29.82,West,269,0.0,6.8,19,0.00,,---,0.02,VWS V12.07,2013-09-12 22:18:00,
2013-09-12 15:23:00,90.2,42.3,29.82,South,174,0.0,6.8,19,0.00,,---,0.02,VWS V12.07,2013-09-12 22:23:00,
2013-09-12 15:28:00,89.7,43.5,29.81,South,174,0.0,6.8,20,0.00,,---,0.02,VWS V12.07,2013-09-12 22:28:00,
2013-09-12 15:30:00,89.6,43.4,29.81,South,174,0.0,6.5,20,0.00,,---,0.02,VWS V12.07,2013-09-12 22:30:00,
2013-09-12 15:33:00,89.6,43.0,29.81,South,174,0.0,6.8,20,0.00,,---,0.02,VWS V12.07,2013-09-12 22:33:00,
2013-09-12 15:38:00,90.0,42.9,29.81,South,174,0.0,6.8,20,0.00,,---,0.02,VWS V12.07,2013-09-12 22:38:00,
2013-09-12 15:43:00,90.1,42.6,29.81,North,11,0.0,6.8,19,0.00,,---,0.02,VWS V12.07,2013-09-12 22:43:00,
2013-09-12 15:48:00,90.0,42.4,29.81,West,281,0.0,5.2,19,0.00,,---,0.02,VWS V12.07,2013-09-12 22:48:00,
2013-09-12 15:53:00,90.0,42.9,29.81,West,281,0.0,5.2,20,0.00,,---,0.02,VWS V12.07,2013-09-12 22:53:00,
2013-09-12 15:58:00,90.2,41.9,29.81,West,281,0.0,5.2,19,0.00,,---,0.02,VWS V12.07,2013-09-12 22:58:00,
2013-09-12 16:00:00,90.4,42.0,29.81,West,281,0.0,5.2,19,0.00,,---,0.02,VWS V12.07,2013-09-12 23:00:00,
2013-09-12 16:03:00,90.2,41.6,29.81,West,281,0.0,5.2,18,0.00,,---,0.02,VWS V12.07,2013-09-12 23:03:00,
2013-09-12 16:08:00,90.3,42.4,29.81,WSW,256,0.0,5.6,19,0.00,,---,0.02,VWS V12.07,2013-09-12 23:08:00,
2013-09-12 16:13:00,90.2,41.7,29.81,WNW,295,0.0,5.8,18,0.00,,---,0.02,VWS V12.07,2013-09-12 23:13:00,
2013-09-12 16:18:00,90.1,42.7,29.81,NNW,336,0.0,5.8,19,0.00,,---,0.02,VWS V12.07,2013-09-12 23:18:00,
2013-09-12 16:23:00,89.9,42.4,29.80,NW,322,0.0,5.8,19,0.00,,---,0.02,VWS V12.07,2013-09-12 23:23:00,
2013-09-12 16:28:00,89.8,43.9,29.81,NW,322,0.0,5.8,20,0.01,,---,0.03,VWS V12.07,2013-09-12 23:28:00,
2013-09-12 16:30:00,89.9,43.9,29.81,NW,322,0.0,5.8,20,0.01,,---,0.03,VWS V12.07,2013-09-12 23:30:00,
2013-09-12 16:33:00,89.5,43.3,29.80,NE,49,3.4,6.5,20,0.01,,---,0.03,VWS V12.07,2013-09-12 23:33:00,
2013-09-12 16:38:00,89.0,42.8,29.81,NNE,28,0.0,6.5,20,0.01,,---,0.03,VWS V12.07,2013-09-12 23:38:00,
2013-09-12 16:43:00,88.9,43.3,29.80,ENE,62,4.7,6.5,20,0.01,,---,0.03,VWS V12.07,2013-09-12 23:43:00,
2013-09-12 16:48:00,88.4,43.7,29.80,NW,305,3.4,6.5,21,0.01,,---,0.03,VWS V12.07,2013-09-12 23:48:00,
2013-09-12 16:53:00,88.5,43.6,29.80,NNE,13,3.2,6.5,21,0.01,,---,0.03,VWS V12.07,2013-09-12 23:53:00,
2013-09-12 16:58:00,88.2,42.9,29.81,ENE,70,0.0,6.5,21,0.01,,---,0.03,VWS V12.07,2013-09-12 23:58:00,
2013-09-12 17:00:00,88.4,43.2,29.81,ENE,70,0.0,6.5,21,0.01,,---,0.03,VWS V12.07,2013-09-13 00:00:00,
2013-09-12 17:03:00,88.0,43.2,29.81,NNE,22,2.7,6.5,21,0.01,,---,0.03,VWS V12.07,2013-09-13 00:03:00,
2013-09-12 17:08:00,87.5,44.4,29.81,NNE,22,0.0,6.5,22,0.01,,---,0.03,VWS V12.07,2013-09-13 00:08:00,
2013-09-12 17:13:00,87.5,43.7,29.80,WNW,301,0.0,6.5,22,0.01,,---,0.03,VWS V12.07,2013-09-13 00:13:00,
2013-09-12 17:18:00,87.5,43.9,29.80,WNW,301,0.0,6.5,22,0.01,,---,0.03,VWS V12.07,2013-09-13 00:18:00,
2013-09-12 17:23:00,87.3,44.1,29.80,NE,45,0.0,6.5,22,0.01,,---,0.03,VWS V12.07,2013-09-13 00:23:00,
2013-09-12 17:28:00,86.8,45.0,29.80,NE,35,0.0,6.5,23,0.01,,---,0.03,VWS V12.07,2013-09-13 00:28:00,
2013-09-12 17:30:00,86.8,44.9,29.79,NE,35,0.0,6.2,23,0.01,,---,0.03,VWS V12.07,2013-09-13 00:30:00,
2013-09-12 17:33:00,86.8,45.7,29.79,NE,35,0.0,6.5,24,0.00,,---,0.03,VWS V12.07,2013-09-13 00:33:00,
2013-09-12 17:38:00,86.5,45.1,29.79,NE,35,0.0,6.5,24,0.00,,---,0.03,VWS V12.07,2013-09-13 00:38:00,
2013-09-12 17:43:00,86.2,45.5,29.79,NE,35,0.0,6.5,24,0.00,,---,0.03,VWS V12.07,2013-09-13 00:43:00,
2013-09-12 17:48:00,85.9,45.1,29.79,NE,35,0.0,0.0,24,0.00,,---,0.03,VWS V12.07,2013-09-13 00:48:00,
2013-09-12 17:53:00,85.5,45.9,29.79,NE,35,0.0,0.0,25,0.00,,---,0.03,VWS V12.07,2013-09-13 00:53:00,
2013-09-12 17:58:00,85.5,48.0,29.79,NE,35,0.0,0.0,27,0.00,,---,0.03,VWS V12.07,2013-09-13 00:58:00,
2013-09-12 18:00:00,85.4,48.1,29.79,NE,35,0.0,0.0,28,0.00,,---,0.03,VWS V12.07,2013-09-13 01:00:00,
2013-09-12 18:03:00,85.2,49.6,29.79,NE,35,0.0,0.0,29,0.00,,---,0.03,VWS V12.07,2013-09-13 01:03:00,
2013-09-12 18:08:00,84.5,51.0,29.79,NE,35,0.0,0.0,32,0.00,,---,0.03,VWS V12.07,2013-09-13 01:08:00,
2013-09-12 18:13:00,83.4,51.2,29.79,West,280,0.0,4.7,33,0.00,,---,0.03,VWS V12.07,2013-09-13 01:13:00,
2013-09-12 18:18:00,82.4,52.0,29.79,West,280,0.0,4.7,35,0.00,,---,0.03,VWS V12.07,2013-09-13 01:18:00,
2013-09-12 18:23:00,81.5,52.5,29.79,West,280,0.0,4.7,37,0.00,,---,0.03,VWS V12.07,2013-09-13 01:23:00,
2013-09-12 18:28:00,80.4,52.7,29.79,West,280,0.0,4.7,38,0.00,,---,0.03,VWS V12.07,2013-09-13 01:28:00,
2013-09-12 18:30:00,80.4,52.6,29.79,West,280,0.0,4.7,38,0.00,,---,0.03,VWS V12.07,2013-09-13 01:30:00,
2013-09-12 18:33:00,79.8,52.7,29.79,West,280,0.0,4.7,39,0.00,,---,0.03,VWS V12.07,2013-09-13 01:33:00,
2013-09-12 18:38:00,79.0,52.2,29.79,West,269,0.0,4.7,39,0.00,,---,0.03,VWS V12.07,2013-09-13 01:38:00,
2013-09-12 18:43:00,78.7,52.2,29.79,WNW,298,0.0,4.8,40,0.00,,---,0.03,VWS V12.07,2013-09-13 01:43:00,
2013-09-12 18:48:00,78.2,51.9,29.79,WNW,298,0.0,4.8,40,0.00,,---,0.03,VWS V12.07,2013-09-13 01:48:00,
2013-09-12 18:53:00,78.1,52.1,29.79,NW,305,0.0,4.8,40,0.00,,---,0.03,VWS V12.07,2013-09-13 01:53:00,
2013-09-12 18:58:00,77.8,51.9,29.79,NW,305,0.0,4.8,40,0.00,,---,0.03,VWS V12.07,2013-09-13 01:58:00,
2013-09-12 19:00:00,77.8,51.9,29.79,NW,305,0.0,4.8,40,0.00,,---,0.03,VWS V12.07,2013-09-13 02:00:00,
2013-09-12 19:03:00,77.8,51.8,29.79,WNW,283,0.0,4.8,40,0.00,,---,0.03,VWS V12.07,2013-09-13 02:03:00,
2013-09-12 19:08:00,77.3,51.1,29.79,WNW,283,0.0,4.8,40,0.00,,---,0.03,VWS V12.07,2013-09-13 02:08:00,
2013-09-12 19:13:00,77.4,51.0,29.79,WNW,283,0.0,4.8,40,0.00,,---,0.03,VWS V12.07,2013-09-13 02:13:00,
2013-09-12 19:18:00,77.3,51.4,29.79,WNW,283,0.0,4.8,40,0.00,,---,0.03,VWS V12.07,2013-09-13 02:18:00,
2013-09-12 19:23:00,77.1,52.6,29.79,WNW,283,0.0,4.8,42,0.00,,---,0.03,VWS V12.07,2013-09-13 02:23:00,
2013-09-12 19:29:00,76.3,53.2,29.79,WNW,283,0.0,4.8,45,0.00,,---,0.03,VWS V12.07,2013-09-13 02:29:00,
2013-09-12 19:30:00,76.5,53.2,29.79,WNW,283,0.0,3.5,44,0.00,,---,0.03,VWS V12.07,2013-09-13 02:30:00,
2013-09-12 19:34:00,75.7,53.8,29.79,WNW,283,0.0,4.8,47,0.00,,---,0.03,VWS V12.07,2013-09-13 02:34:00,
2013-09-12 19:39:00,75.2,54.0,29.79,WNW,283,0.0,4.8,48,0.00,,---,0.03,VWS V12.07,2013-09-13 02:39:00,
2013-09-12 19:44:00,74.7,54.2,29.79,WNW,283,0.0,4.8,49,0.00,,---,0.03,VWS V12.07,2013-09-13 02:44:00,
2013-09-12 19:49:00,74.3,54.1,29.80,WNW,283,0.0,0.0,49,0.00,,---,0.03,VWS V12.07,2013-09-13 02:49:00,
2013-09-12 19:54:00,73.8,54.0,29.79,WNW,283,0.0,0.0,50,0.00,,---,0.03,VWS V12.07,2013-09-13 02:54:00,
2013-09-12 19:59:00,73.4,54.3,29.80,WNW,283,0.0,0.0,51,0.00,,---,0.03,VWS V12.07,2013-09-13 02:59:00,
2013-09-12 20:00:00,73.4,54.2,29.80,WNW,283,0.0,0.0,51,0.00,,---,0.03,VWS V12.07,2013-09-13 03:00:00,
2013-09-12 20:04:00,72.9,54.3,29.80,WNW,283,0.0,0.0,52,0.00,,---,0.03,VWS V12.07,2013-09-13 03:04:00,
2013-09-12 20:09:00,72.5,54.6,29.80,WNW,283,0.0,0.0,53,0.00,,---,0.03,VWS V12.07,2013-09-13 03:09:00,
2013-09-12 20:14:00,71.9,53.9,29.81,WNW,283,0.0,0.0,53,0.00,,---,0.03,VWS V12.07,2013-09-13 03:14:00,
2013-09-12 20:19:00,71.6,54.0,29.81,WNW,283,0.0,0.0,54,0.00,,---,0.03,VWS V12.07,2013-09-13 03:19:00,
2013-09-12 20:24:00,71.2,54.1,29.81,WNW,283,0.0,0.0,55,0.00,,---,0.03,VWS V12.07,2013-09-13 03:24:00,
2013-09-12 20:29:00,71.0,54.5,29.81,WNW,283,0.0,0.0,56,0.00,,---,0.03,VWS V12.07,2013-09-13 03:29:00,
2013-09-12 20:30:00,70.9,54.0,29.81,WNW,283,0.0,0.0,55,0.00,,---,0.03,VWS V12.07,2013-09-13 03:30:00,
2013-09-12 20:34:00,70.7,54.6,29.81,WNW,283,0.0,0.0,57,0.00,,---,0.03,VWS V12.07,2013-09-13 03:34:00,
2013-09-12 20:39:00,70.6,55.4,29.81,WNW,283,0.0,0.0,58,0.00,,---,0.03,VWS V12.07,2013-09-13 03:39:00,
2013-09-12 20:44:00,70.2,55.5,29.82,WNW,283,0.0,0.0,60,0.00,,---,0.03,VWS V12.07,2013-09-13 03:44:00,
2013-09-12 20:49:00,69.8,55.6,29.82,WNW,283,0.0,0.0,61,0.00,,---,0.03,VWS V12.07,2013-09-13 03:49:00,
2013-09-12 20:54:00,69.6,55.7,29.82,WNW,283,0.0,0.0,61,0.00,,---,0.03,VWS V12.07,2013-09-13 03:54:00,
2013-09-12 20:59:00,69.5,55.3,29.82,WNW,283,0.0,0.0,61,0.00,,---,0.03,VWS V12.07,2013-09-13 03:59:00,
2013-09-12 21:00:00,69.6,55.4,29.82,WNW,283,0.0,0.0,61,0.00,,---,0.03,VWS V12.07,2013-09-13 04:00:00,
2013-09-12 21:01:00,69.5,55.2,29.82,WNW,283,0.0,0.0,60,0.00,,---,0.03,VWS V12.07,2013-09-13 04:01:00,
2013-09-12 21:02:00,69.6,55.2,29.82,WNW,283,0.0,0.0,60,0.00,,---,0.03,VWS V12.07,2013-09-13 04:02:00,
2013-09-12 21:07:00,69.7,54.9,29.82,WSW,249,0.0,4.5,59,0.00,,---,0.03,VWS V12.07,2013-09-13 04:07:00,
2013-09-12 21:12:00,70.2,55.0,29.82,WSW,249,0.0,4.5,58,0.00,,---,0.03,VWS V12.07,2013-09-13 04:12:00,
2013-09-12 21:17:00,70.5,55.0,29.82,WSW,249,0.0,4.5,58,0.00,,---,0.03,VWS V12.07,2013-09-13 04:17:00,
2013-09-12 21:22:00,70.5,55.1,29.82,WSW,249,0.0,4.5,58,0.00,,---,0.03,VWS V12.07,2013-09-13 04:22:00,
2013-09-12 21:27:00,70.5,55.4,29.82,WSW,249,0.0,4.5,59,0.00,,---,0.03,VWS V12.07,2013-09-13 04:27:00,
2013-09-12 21:30:00,70.5,55.4,29.82,WSW,249,0.0,4.5,59,0.00,,---,0.03,VWS V12.07,2013-09-13 04:30:00,
2013-09-12 21:32:00,70.3,55.6,29.82,WSW,249,0.0,4.5,60,0.00,,---,0.03,VWS V12.07,2013-09-13 04:32:00,
2013-09-12 21:37:00,70.1,55.6,29.82,WSW,249,0.0,4.5,60,0.00,,---,0.03,VWS V12.07,2013-09-13 04:37:00,
2013-09-12 21:42:00,70.2,55.8,29.82,WSW,249,0.0,4.5,60,0.00,,---,0.03,VWS V12.07,2013-09-13 04:42:00,
2013-09-12 21:47:00,70.3,56.0,29.82,WSW,249,0.0,4.5,60,0.00,,---,0.03,VWS V12.07,2013-09-13 04:47:00,
2013-09-12 21:52:00,70.5,56.0,29.82,WSW,249,0.0,0.0,60,0.00,,---,0.03,VWS V12.07,2013-09-13 04:52:00,
2013-09-12 21:57:00,70.4,55.9,29.82,NW,315,3.3,5.1,60,0.00,,---,0.03,VWS V12.07,2013-09-13 04:57:00,
2013-09-12 22:00:00,70.6,56.1,29.82,NW,309,5.0,5.1,60,0.00,,---,0.03,VWS V12.07,2013-09-13 05:00:00,
2013-09-12 22:02:00,70.6,56.1,29.82,WNW,284,0.0,5.1,60,0.00,,---,0.03,VWS V12.07,2013-09-13 05:02:00,
2013-09-12 22:07:00,70.5,56.2,29.82,WNW,284,0.0,5.1,60,0.00,,---,0.03,VWS V12.07,2013-09-13 05:07:00,
2013-09-12 22:12:00,70.4,56.2,29.83,WNW,284,0.0,5.1,61,0.00,,---,0.03,VWS V12.07,2013-09-13 05:12:00,
2013-09-12 22:17:00,70.2,56.6,29.83,WNW,284,0.0,5.1,62,0.00,,---,0.03,VWS V12.07,2013-09-13 05:17:00,
2013-09-12 22:22:00,69.9,56.4,29.83,WNW,284,0.0,5.1,62,0.00,,---,0.03,VWS V12.07,2013-09-13 05:22:00,
2013-09-12 22:27:00,69.5,56.1,29.83,WNW,284,0.0,5.1,62,0.00,,---,0.03,VWS V12.07,2013-09-13 05:27:00,
2013-09-12 22:30:00,69.5,56.1,29.83,WNW,284,0.0,5.0,62,0.00,,---,0.03,VWS V12.07,2013-09-13 05:30:00,
2013-09-12 22:32:00,69.4,55.9,29.83,WNW,284,0.0,5.1,62,0.00,,---,0.03,VWS V12.07,2013-09-13 05:32:00,
2013-09-12 22:37:00,69.1,55.6,29.83,WNW,284,0.0,5.1,62,0.00,,---,0.03,VWS V12.07,2013-09-13 05:37:00,
2013-09-12 22:42:00,68.5,55.5,29.83,WNW,284,0.0,5.1,63,0.00,,---,0.03,VWS V12.07,2013-09-13 05:42:00,
2013-09-12 22:48:00,68.4,55.5,29.83,WNW,284,0.0,0.0,63,0.00,,---,0.03,VWS V12.07,2013-09-13 05:48:00,
2013-09-12 22:53:00,68.1,55.3,29.83,WNW,284,0.0,0.0,64,0.00,,---,0.03,VWS V12.07,2013-09-13 05:53:00,
2013-09-12 22:58:00,68.1,55.5,29.83,WNW,284,0.0,0.0,64,0.00,,---,0.03,VWS V12.07,2013-09-13 05:58:00,
2013-09-12 23:00:00,68.1,55.5,29.83,WNW,284,0.0,0.0,64,0.00,,---,0.03,VWS V12.07,2013-09-13 06:00:00,
2013-09-12 23:03:00,68.1,55.7,29.83,WNW,284,0.0,0.0,64,0.00,,---,0.03,VWS V12.07,2013-09-13 06:03:00,
2013-09-12 23:08:00,67.9,55.8,29.83,WNW,284,0.0,0.0,65,0.00,,---,0.03,VWS V12.07,2013-09-13 06:08:00,
2013-09-12 23:13:00,67.3,55.8,29.83,WNW,284,0.0,0.0,67,0.00,,---,0.03,VWS V12.07,2013-09-13 06:13:00,
2013-09-12 23:18:00,67.2,55.8,29.83,WNW,284,0.0,0.0,67,0.00,,---,0.03,VWS V12.07,2013-09-13 06:18:00,
2013-09-12 23:23:00,67.0,55.9,29.83,WNW,284,0.0,0.0,68,0.00,,---,0.03,VWS V12.07,2013-09-13 06:23:00,
2013-09-12 23:28:00,66.7,55.7,29.83,WNW,284,0.0,0.0,68,0.00,,---,0.03,VWS V12.07,2013-09-13 06:28:00,
2013-09-12 23:30:00,66.7,55.7,29.83,WNW,284,0.0,0.0,68,0.00,,---,0.03,VWS V12.07,2013-09-13 06:30:00,
2013-09-12 23:33:00,66.7,56.0,29.82,WNW,284,0.0,0.0,68,0.00,,---,0.03,VWS V12.07,2013-09-13 06:33:00,
2013-09-12 23:38:00,66.4,56.1,29.83,WNW,284,0.0,0.0,70,0.00,,---,0.03,VWS V12.07,2013-09-13 06:38:00,
2013-09-12 23:43:00,66.1,55.8,29.82,WNW,284,0.0,0.0,70,0.00,,---,0.03,VWS V12.07,2013-09-13 06:43:00,
2013-09-12 23:48:00,66.1,56.2,29.83,WNW,284,0.0,0.0,70,0.00,,---,0.03,VWS V12.07,2013-09-13 06:48:00,
2013-09-12 23:53:00,66.0,56.0,29.82,WNW,284,0.0,0.0,70,0.00,,---,0.03,VWS V12.07,2013-09-13 06:53:00,
2013-09-12 23:58:00,65.9,56.2,29.82,WNW,284,0.0,0.0,71,0.00,,---,0.03,VWS V12.07,2013-09-13 06:58:00,